sensor_id;sensor_type;location;lat;lon;timestamp;P1;durP1;ratioP1;P2;durP2;ratioP2
61642;SDS011;47551;52.506;4.678;2022-09-03T00:00:08;8.75;;;5.07;;
61642;SDS011;47551;52.506;4.678;2022-09-03T00:00:29;8.05;;;5.00;;
61642;SDS011;47551;52.506;4.678;2022-09-03T00:00:53;9.50;;;5.28;;
61642;SDS011;47551;52.506;4.678;2022-09-03T00:01:26;9.45;;;5.18;;
61642;SDS011;47551;52.506;4.678;2022-09-03T00:01:56;8.02;;;5.05;;
61642;SDS011;47551;52.506;4.678;2022-09-03T00:02:20;7.93;;;5.00;;
61642;SDS011;47551;52.506;4.678;2022-09-03T00:02:46;7.78;;;4.88;;
61642;SDS011;47551;52.506;4.678;2022-09-03T00:03:30;8.23;;;5.30;;
61642;SDS011;47551;52.506;4.678;2022-09-03T00:03:50;9.55;;;4.80;;
61642;SDS011;47551;52.506;4.678;2022-09-03T00:04:21;8.18;;;4.70;;
61642;SDS011;47551;52.506;4.678;2022-09-03T00:05:11;7.03;;;5.10;;
61642;SDS011;47551;52.506;4.678;2022-09-03T00:06:21;7.82;;;5.22;;
61642;SDS011;47551;52.506;4.678;2022-09-03T00:06:44;9.15;;;4.80;;
61642;SDS011;47551;52.506;4.678;2022-09-03T00:07:10;7.13;;;4.35;;
61642;SDS011;47551;52.506;4.678;2022-09-03T00:08:01;6.28;;;4.50;;
61642;SDS011;47551;52.506;4.678;2022-09-03T00:09:03;8.05;;;5.00;;
61642;SDS011;47551;52.506;4.678;2022-09-03T00:09:30;8.70;;;4.97;;
61642;SDS011;47551;52.506;4.678;2022-09-03T00:09:55;7.68;;;4.70;;
61642;SDS011;47551;52.506;4.678;2022-09-03T00:10:20;7.18;;;4.90;;
61642;SDS011;47551;52.506;4.678;2022-09-03T00:10:44;6.55;;;4.90;;
61642;SDS011;47551;52.506;4.678;2022-09-03T00:11:38;7.22;;;4.75;;
61642;SDS011;47551;52.506;4.678;2022-09-03T00:12:07;6.97;;;4.72;;
61642;SDS011;47551;52.506;4.678;2022-09-03T00:12:31;6.97;;;5.00;;
61642;SDS011;47551;52.506;4.678;2022-09-03T00:12:53;5.63;;;4.60;;
61642;SDS011;47551;52.506;4.678;2022-09-03T00:13:16;7.32;;;5.10;;
61642;SDS011;47551;52.506;4.678;2022-09-03T00:13:41;6.80;;;4.70;;
61642;SDS011;47551;52.506;4.678;2022-09-03T00:14:08;6.45;;;5.03;;
61642;SDS011;47551;52.506;4.678;2022-09-03T00:14:36;6.75;;;5.18;;
61642;SDS011;47551;52.506;4.678;2022-09-03T00:15:08;6.85;;;4.80;;
61642;SDS011;47551;52.506;4.678;2022-09-03T00:15:30;6.63;;;4.88;;
61642;SDS011;47551;52.506;4.678;2022-09-03T00:15:52;5.50;;;4.65;;
61642;SDS011;47551;52.506;4.678;2022-09-03T00:16:15;5.93;;;4.53;;
61642;SDS011;47551;52.506;4.678;2022-09-03T00:16:42;6.60;;;4.88;;
61642;SDS011;47551;52.506;4.678;2022-09-03T00:17:08;8.00;;;5.38;;
61642;SDS011;47551;52.506;4.678;2022-09-03T00:17:31;6.53;;;4.78;;
61642;SDS011;47551;52.506;4.678;2022-09-03T00:18:07;6.90;;;4.72;;
61642;SDS011;47551;52.506;4.678;2022-09-03T00:18:29;7.30;;;4.70;;
61642;SDS011;47551;52.506;4.678;2022-09-03T00:18:58;6.57;;;4.90;;
61642;SDS011;47551;52.506;4.678;2022-09-03T00:19:21;7.60;;;5.00;;
61642;SDS011;47551;52.506;4.678;2022-09-03T00:19:46;7.55;;;4.95;;
61642;SDS011;47551;52.506;4.678;2022-09-03T00:20:50;7.15;;;5.30;;
61642;SDS011;47551;52.506;4.678;2022-09-03T00:21:13;7.57;;;5.10;;
61642;SDS011;47551;52.506;4.678;2022-09-03T00:22:16;7.60;;;5.13;;
61642;SDS011;47551;52.506;4.678;2022-09-03T00:22:59;8.02;;;5.40;;
61642;SDS011;47551;52.506;4.678;2022-09-03T00:23:21;7.15;;;5.00;;
61642;SDS011;47551;52.506;4.678;2022-09-03T00:23:43;7.05;;;5.00;;
61642;SDS011;47551;52.506;4.678;2022-09-03T00:24:05;7.53;;;5.22;;
61642;SDS011;47551;52.506;4.678;2022-09-03T00:24:28;6.90;;;5.28;;
61642;SDS011;47551;52.506;4.678;2022-09-03T00:24:49;6.32;;;5.10;;
61642;SDS011;47551;52.506;4.678;2022-09-03T00:25:14;7.70;;;5.13;;
61642;SDS011;47551;52.506;4.678;2022-09-03T00:25:37;7.40;;;5.10;;
61642;SDS011;47551;52.506;4.678;2022-09-03T00:26:32;7.28;;;5.30;;
61642;SDS011;47551;52.506;4.678;2022-09-03T00:26:59;6.80;;;4.90;;
61642;SDS011;47551;52.506;4.678;2022-09-03T00:27:21;8.43;;;5.30;;
61642;SDS011;47551;52.506;4.678;2022-09-03T00:27:42;8.13;;;5.50;;
61642;SDS011;47551;52.506;4.678;2022-09-03T00:28:05;6.95;;;5.15;;
61642;SDS011;47551;52.506;4.678;2022-09-03T00:28:35;6.65;;;4.90;;
61642;SDS011;47551;52.506;4.678;2022-09-03T00:29:11;7.00;;;5.13;;
61642;SDS011;47551;52.506;4.678;2022-09-03T00:29:34;6.63;;;5.30;;
61642;SDS011;47551;52.506;4.678;2022-09-03T00:30:15;7.33;;;5.00;;
61642;SDS011;47551;52.506;4.678;2022-09-03T00:30:36;7.27;;;4.80;;
61642;SDS011;47551;52.506;4.678;2022-09-03T00:31:06;7.57;;;4.87;;
61642;SDS011;47551;52.506;4.678;2022-09-03T00:31:59;7.05;;;4.97;;
61642;SDS011;47551;52.506;4.678;2022-09-03T00:32:33;6.93;;;4.95;;
61642;SDS011;47551;52.506;4.678;2022-09-03T00:32:58;6.43;;;4.82;;
61642;SDS011;47551;52.506;4.678;2022-09-03T00:33:21;5.88;;;4.70;;
61642;SDS011;47551;52.506;4.678;2022-09-03T00:33:43;6.72;;;4.78;;
61642;SDS011;47551;52.506;4.678;2022-09-03T00:34:17;7.90;;;4.75;;
61642;SDS011;47551;52.506;4.678;2022-09-03T00:34:44;7.05;;;5.03;;
61642;SDS011;47551;52.506;4.678;2022-09-03T00:35:11;7.68;;;5.07;;
61642;SDS011;47551;52.506;4.678;2022-09-03T00:35:34;6.65;;;4.90;;
61642;SDS011;47551;52.506;4.678;2022-09-03T00:36:21;7.10;;;4.90;;
61642;SDS011;47551;52.506;4.678;2022-09-03T00:36:43;6.28;;;4.78;;
61642;SDS011;47551;52.506;4.678;2022-09-03T00:37:05;6.60;;;4.90;;
61642;SDS011;47551;52.506;4.678;2022-09-03T00:37:26;7.50;;;5.00;;
61642;SDS011;47551;52.506;4.678;2022-09-03T00:37:47;7.78;;;4.97;;
61642;SDS011;47551;52.506;4.678;2022-09-03T00:38:08;6.30;;;4.60;;
61642;SDS011;47551;52.506;4.678;2022-09-03T00:38:28;5.93;;;4.47;;
61642;SDS011;47551;52.506;4.678;2022-09-03T00:38:49;6.45;;;4.78;;
61642;SDS011;47551;52.506;4.678;2022-09-03T00:39:11;7.22;;;5.05;;
61642;SDS011;47551;52.506;4.678;2022-09-03T00:39:32;6.68;;;4.63;;
61642;SDS011;47551;52.506;4.678;2022-09-03T00:39:53;6.88;;;4.80;;
61642;SDS011;47551;52.506;4.678;2022-09-03T00:40:20;7.53;;;4.95;;
61642;SDS011;47551;52.506;4.678;2022-09-03T00:41:40;6.95;;;5.00;;
61642;SDS011;47551;52.506;4.678;2022-09-03T00:42:45;6.80;;;5.00;;
61642;SDS011;47551;52.506;4.678;2022-09-03T00:43:32;6.97;;;4.90;;
61642;SDS011;47551;52.506;4.678;2022-09-03T00:44:08;7.15;;;4.63;;
61642;SDS011;47551;52.506;4.678;2022-09-03T00:44:37;5.80;;;4.80;;
61642;SDS011;47551;52.506;4.678;2022-09-03T00:45:13;6.50;;;4.75;;
61642;SDS011;47551;52.506;4.678;2022-09-03T00:46:36;5.95;;;4.80;;
61642;SDS011;47551;52.506;4.678;2022-09-03T00:47:07;6.38;;;4.80;;
61642;SDS011;47551;52.506;4.678;2022-09-03T00:47:42;6.03;;;4.75;;
61642;SDS011;47551;52.506;4.678;2022-09-03T00:48:29;7.10;;;4.78;;
61642;SDS011;47551;52.506;4.678;2022-09-03T00:49:09;7.10;;;4.72;;
61642;SDS011;47551;52.506;4.678;2022-09-03T00:51:32;6.10;;;4.50;;
61642;SDS011;47551;52.506;4.678;2022-09-03T00:52:09;7.13;;;4.85;;
61642;SDS011;47551;52.506;4.678;2022-09-03T00:53:22;6.97;;;4.45;;
61642;SDS011;47551;52.506;4.678;2022-09-03T00:53:58;6.03;;;4.68;;
61642;SDS011;47551;52.506;4.678;2022-09-03T00:54:32;5.53;;;4.78;;
61642;SDS011;47551;52.506;4.678;2022-09-03T00:55:26;6.20;;;4.90;;
61642;SDS011;47551;52.506;4.678;2022-09-03T00:56:47;6.90;;;4.70;;
61642;SDS011;47551;52.506;4.678;2022-09-03T00:58:57;6.97;;;4.93;;
61642;SDS011;47551;52.506;4.678;2022-09-03T00:59:30;5.82;;;4.75;;
61642;SDS011;47551;52.506;4.678;2022-09-03T01:00:19;6.40;;;4.88;;
61642;SDS011;47551;52.506;4.678;2022-09-03T01:00:40;7.38;;;5.05;;
61642;SDS011;47551;52.506;4.678;2022-09-03T01:01:04;7.20;;;5.25;;
61642;SDS011;47551;52.506;4.678;2022-09-03T01:01:47;7.88;;;5.05;;
61642;SDS011;47551;52.506;4.678;2022-09-03T01:02:22;6.72;;;4.82;;
61642;SDS011;47551;52.506;4.678;2022-09-03T01:03:06;5.80;;;4.57;;
61642;SDS011;47551;52.506;4.678;2022-09-03T01:03:36;6.68;;;4.85;;
61642;SDS011;47551;52.506;4.678;2022-09-03T01:05:10;5.80;;;4.75;;
61642;SDS011;47551;52.506;4.678;2022-09-03T01:07:43;7.35;;;4.97;;
61642;SDS011;47551;52.506;4.678;2022-09-03T01:08:28;6.78;;;4.90;;
61642;SDS011;47551;52.506;4.678;2022-09-03T01:09:30;6.07;;;4.60;;
61642;SDS011;47551;52.506;4.678;2022-09-03T01:09:57;5.80;;;4.80;;
61642;SDS011;47551;52.506;4.678;2022-09-03T01:10:29;6.85;;;4.60;;
61642;SDS011;47551;52.506;4.678;2022-09-03T01:12:37;5.45;;;4.68;;
61642;SDS011;47551;52.506;4.678;2022-09-03T01:13:06;6.38;;;4.63;;
61642;SDS011;47551;52.506;4.678;2022-09-03T01:13:35;7.28;;;4.75;;
61642;SDS011;47551;52.506;4.678;2022-09-03T01:13:58;6.07;;;4.80;;
61642;SDS011;47551;52.506;4.678;2022-09-03T01:14:30;7.05;;;4.78;;
61642;SDS011;47551;52.506;4.678;2022-09-03T01:16:03;6.53;;;4.65;;
61642;SDS011;47551;52.506;4.678;2022-09-03T01:16:50;6.25;;;4.50;;
61642;SDS011;47551;52.506;4.678;2022-09-03T01:17:23;6.15;;;4.78;;
61642;SDS011;47551;52.506;4.678;2022-09-03T01:17:51;5.65;;;4.30;;
61642;SDS011;47551;52.506;4.678;2022-09-03T01:18:27;5.88;;;4.30;;
61642;SDS011;47551;52.506;4.678;2022-09-03T01:18:59;6.53;;;4.70;;
61642;SDS011;47551;52.506;4.678;2022-09-03T01:19:30;7.00;;;4.80;;
61642;SDS011;47551;52.506;4.678;2022-09-03T01:24:36;7.32;;;5.13;;
61642;SDS011;47551;52.506;4.678;2022-09-03T01:25:14;7.28;;;5.30;;
61642;SDS011;47551;52.506;4.678;2022-09-03T01:25:53;8.25;;;5.82;;
61642;SDS011;47551;52.506;4.678;2022-09-03T01:28:48;7.15;;;5.25;;
61642;SDS011;47551;52.506;4.678;2022-09-03T01:30:02;7.35;;;5.25;;
61642;SDS011;47551;52.506;4.678;2022-09-03T01:30:18;6.90;;;5.10;;
61642;SDS011;47551;52.506;4.678;2022-09-03T01:30:40;7.13;;;4.95;;
61642;SDS011;47551;52.506;4.678;2022-09-03T01:31:12;7.03;;;5.20;;
61642;SDS011;47551;52.506;4.678;2022-09-03T01:31:57;6.10;;;5.03;;
61642;SDS011;47551;52.506;4.678;2022-09-03T01:33:04;5.90;;;5.03;;
61642;SDS011;47551;52.506;4.678;2022-09-03T01:34:51;6.43;;;5.03;;
61642;SDS011;47551;52.506;4.678;2022-09-03T01:35:48;7.95;;;5.30;;
61642;SDS011;47551;52.506;4.678;2022-09-03T01:36:18;7.05;;;4.88;;
61642;SDS011;47551;52.506;4.678;2022-09-03T01:36:45;5.68;;;4.68;;
61642;SDS011;47551;52.506;4.678;2022-09-03T01:38:08;6.17;;;4.70;;
61642;SDS011;47551;52.506;4.678;2022-09-03T01:38:33;6.00;;;4.60;;
61642;SDS011;47551;52.506;4.678;2022-09-03T01:39:06;6.75;;;4.80;;
61642;SDS011;47551;52.506;4.678;2022-09-03T01:39:45;6.45;;;4.50;;
61642;SDS011;47551;52.506;4.678;2022-09-03T01:42:43;7.40;;;4.50;;
61642;SDS011;47551;52.506;4.678;2022-09-03T01:43:28;6.40;;;4.50;;
61642;SDS011;47551;52.506;4.678;2022-09-03T01:43:59;5.57;;;4.13;;
61642;SDS011;47551;52.506;4.678;2022-09-03T01:45:58;5.90;;;4.20;;
61642;SDS011;47551;52.506;4.678;2022-09-03T01:46:22;5.32;;;4.18;;
61642;SDS011;47551;52.506;4.678;2022-09-03T01:46:43;6.93;;;4.35;;
61642;SDS011;47551;52.506;4.678;2022-09-03T01:48:52;5.40;;;4.10;;
61642;SDS011;47551;52.506;4.678;2022-09-03T01:49:18;4.78;;;4.03;;
61642;SDS011;47551;52.506;4.678;2022-09-03T01:49:53;5.53;;;4.05;;
61642;SDS011;47551;52.506;4.678;2022-09-03T01:50:41;5.35;;;4.10;;
61642;SDS011;47551;52.506;4.678;2022-09-03T01:51:02;5.72;;;4.13;;
61642;SDS011;47551;52.506;4.678;2022-09-03T01:51:28;5.93;;;4.05;;
61642;SDS011;47551;52.506;4.678;2022-09-03T01:52:32;5.03;;;4.30;;
61642;SDS011;47551;52.506;4.678;2022-09-03T01:53:41;6.10;;;4.25;;
61642;SDS011;47551;52.506;4.678;2022-09-03T01:54:46;5.57;;;4.03;;
61642;SDS011;47551;52.506;4.678;2022-09-03T01:56:26;5.28;;;3.90;;
61642;SDS011;47551;52.506;4.678;2022-09-03T01:58:28;5.43;;;4.22;;
61642;SDS011;47551;52.506;4.678;2022-09-03T01:58:51;6.05;;;4.32;;
61642;SDS011;47551;52.506;4.678;2022-09-03T01:59:41;5.72;;;4.00;;
61642;SDS011;47551;52.506;4.678;2022-09-03T02:00:23;5.20;;;3.90;;
61642;SDS011;47551;52.506;4.678;2022-09-03T02:00:44;5.97;;;3.80;;
61642;SDS011;47551;52.506;4.678;2022-09-03T02:01:07;5.32;;;3.97;;
61642;SDS011;47551;52.506;4.678;2022-09-03T02:01:32;5.03;;;4.00;;
61642;SDS011;47551;52.506;4.678;2022-09-03T02:02:50;5.75;;;4.30;;
61642;SDS011;47551;52.506;4.678;2022-09-03T02:03:10;5.85;;;4.35;;
61642;SDS011;47551;52.506;4.678;2022-09-03T02:03:37;5.13;;;4.18;;
61642;SDS011;47551;52.506;4.678;2022-09-03T02:04:01;4.50;;;3.90;;
61642;SDS011;47551;52.506;4.678;2022-09-03T02:04:24;5.60;;;4.13;;
61642;SDS011;47551;52.506;4.678;2022-09-03T02:05:27;5.72;;;4.30;;
61642;SDS011;47551;52.506;4.678;2022-09-03T02:05:48;5.72;;;4.25;;
61642;SDS011;47551;52.506;4.678;2022-09-03T02:06:11;6.20;;;4.10;;
61642;SDS011;47551;52.506;4.678;2022-09-03T02:06:32;5.67;;;3.90;;
61642;SDS011;47551;52.506;4.678;2022-09-03T02:06:53;4.78;;;3.90;;
61642;SDS011;47551;52.506;4.678;2022-09-03T02:07:15;5.20;;;4.05;;
61642;SDS011;47551;52.506;4.678;2022-09-03T02:07:39;6.32;;;4.00;;
61642;SDS011;47551;52.506;4.678;2022-09-03T02:08:01;5.80;;;4.00;;
61642;SDS011;47551;52.506;4.678;2022-09-03T02:08:21;5.85;;;4.20;;
61642;SDS011;47551;52.506;4.678;2022-09-03T02:08:42;5.70;;;4.32;;
61642;SDS011;47551;52.506;4.678;2022-09-03T02:09:02;6.70;;;4.30;;
61642;SDS011;47551;52.506;4.678;2022-09-03T02:09:23;6.30;;;4.00;;
61642;SDS011;47551;52.506;4.678;2022-09-03T02:09:43;6.25;;;4.10;;
61642;SDS011;47551;52.506;4.678;2022-09-03T02:10:05;6.20;;;4.20;;
61642;SDS011;47551;52.506;4.678;2022-09-03T02:10:57;5.38;;;4.10;;
61642;SDS011;47551;52.506;4.678;2022-09-03T02:11:21;5.30;;;4.10;;
61642;SDS011;47551;52.506;4.678;2022-09-03T02:11:41;5.00;;;4.10;;
61642;SDS011;47551;52.506;4.678;2022-09-03T02:12:05;5.65;;;4.20;;
61642;SDS011;47551;52.506;4.678;2022-09-03T02:12:30;5.63;;;4.30;;
61642;SDS011;47551;52.506;4.678;2022-09-03T02:12:53;5.03;;;4.20;;
61642;SDS011;47551;52.506;4.678;2022-09-03T02:13:56;5.30;;;4.10;;
61642;SDS011;47551;52.506;4.678;2022-09-03T02:14:18;6.10;;;4.05;;
61642;SDS011;47551;52.506;4.678;2022-09-03T02:14:39;6.53;;;4.27;;
61642;SDS011;47551;52.506;4.678;2022-09-03T02:15:00;6.23;;;4.40;;
61642;SDS011;47551;52.506;4.678;2022-09-03T02:15:24;5.90;;;4.20;;
61642;SDS011;47551;52.506;4.678;2022-09-03T02:15:45;4.68;;;3.83;;
61642;SDS011;47551;52.506;4.678;2022-09-03T02:16:13;4.93;;;4.10;;
61642;SDS011;47551;52.506;4.678;2022-09-03T02:16:34;5.40;;;4.13;;
61642;SDS011;47551;52.506;4.678;2022-09-03T02:16:55;5.70;;;3.95;;
61642;SDS011;47551;52.506;4.678;2022-09-03T02:17:17;6.20;;;4.10;;
61642;SDS011;47551;52.506;4.678;2022-09-03T02:17:37;6.07;;;4.37;;
61642;SDS011;47551;52.506;4.678;2022-09-03T02:17:58;4.72;;;4.05;;
61642;SDS011;47551;52.506;4.678;2022-09-03T02:18:35;5.78;;;4.25;;
61642;SDS011;47551;52.506;4.678;2022-09-03T02:19:00;5.53;;;4.25;;
61642;SDS011;47551;52.506;4.678;2022-09-03T02:19:22;6.63;;;4.10;;
61642;SDS011;47551;52.506;4.678;2022-09-03T02:19:43;6.35;;;4.20;;
61642;SDS011;47551;52.506;4.678;2022-09-03T02:20:05;5.85;;;4.28;;
61642;SDS011;47551;52.506;4.678;2022-09-03T02:20:27;4.97;;;4.13;;
61642;SDS011;47551;52.506;4.678;2022-09-03T02:20:48;5.78;;;4.40;;
61642;SDS011;47551;52.506;4.678;2022-09-03T02:21:09;5.35;;;4.45;;
61642;SDS011;47551;52.506;4.678;2022-09-03T02:21:36;5.83;;;4.40;;
61642;SDS011;47551;52.506;4.678;2022-09-03T02:21:57;6.28;;;4.18;;
61642;SDS011;47551;52.506;4.678;2022-09-03T02:22:17;6.03;;;4.27;;
61642;SDS011;47551;52.506;4.678;2022-09-03T02:22:38;6.13;;;4.43;;
61642;SDS011;47551;52.506;4.678;2022-09-03T02:22:59;5.55;;;4.47;;
61642;SDS011;47551;52.506;4.678;2022-09-03T02:23:19;5.57;;;4.10;;
61642;SDS011;47551;52.506;4.678;2022-09-03T02:23:40;5.63;;;4.20;;
61642;SDS011;47551;52.506;4.678;2022-09-03T02:24:02;6.93;;;4.10;;
61642;SDS011;47551;52.506;4.678;2022-09-03T02:24:26;5.82;;;4.10;;
61642;SDS011;47551;52.506;4.678;2022-09-03T02:24:47;5.03;;;4.18;;
61642;SDS011;47551;52.506;4.678;2022-09-03T02:25:07;5.27;;;4.40;;
61642;SDS011;47551;52.506;4.678;2022-09-03T02:25:35;4.82;;;4.32;;
61642;SDS011;47551;52.506;4.678;2022-09-03T02:25:56;5.93;;;4.20;;
61642;SDS011;47551;52.506;4.678;2022-09-03T02:26:18;5.80;;;4.07;;
61642;SDS011;47551;52.506;4.678;2022-09-03T02:26:40;6.22;;;4.47;;
61642;SDS011;47551;52.506;4.678;2022-09-03T02:27:00;5.07;;;4.03;;
61642;SDS011;47551;52.506;4.678;2022-09-03T02:27:21;5.77;;;4.20;;
61642;SDS011;47551;52.506;4.678;2022-09-03T02:27:41;6.68;;;4.45;;
61642;SDS011;47551;52.506;4.678;2022-09-03T02:28:06;5.60;;;4.30;;
61642;SDS011;47551;52.506;4.678;2022-09-03T02:28:27;5.43;;;4.10;;
61642;SDS011;47551;52.506;4.678;2022-09-03T02:28:51;5.70;;;4.20;;
61642;SDS011;47551;52.506;4.678;2022-09-03T02:29:13;5.72;;;4.30;;
61642;SDS011;47551;52.506;4.678;2022-09-03T02:29:34;6.15;;;4.20;;
61642;SDS011;47551;52.506;4.678;2022-09-03T02:29:55;5.70;;;4.05;;
61642;SDS011;47551;52.506;4.678;2022-09-03T02:30:15;5.32;;;4.20;;
61642;SDS011;47551;52.506;4.678;2022-09-03T02:30:38;5.78;;;4.30;;
61642;SDS011;47551;52.506;4.678;2022-09-03T02:30:58;5.80;;;4.37;;
61642;SDS011;47551;52.506;4.678;2022-09-03T02:31:18;5.53;;;4.30;;
61642;SDS011;47551;52.506;4.678;2022-09-03T02:31:40;6.32;;;4.20;;
61642;SDS011;47551;52.506;4.678;2022-09-03T02:32:00;8.05;;;4.53;;
61642;SDS011;47551;52.506;4.678;2022-09-03T02:32:20;6.63;;;4.50;;
61642;SDS011;47551;52.506;4.678;2022-09-03T02:32:40;5.70;;;4.33;;
61642;SDS011;47551;52.506;4.678;2022-09-03T02:33:01;6.20;;;4.38;;
61642;SDS011;47551;52.506;4.678;2022-09-03T02:33:21;5.53;;;4.23;;
61642;SDS011;47551;52.506;4.678;2022-09-03T02:33:43;5.10;;;4.20;;
61642;SDS011;47551;52.506;4.678;2022-09-03T02:34:04;5.82;;;4.13;;
61642;SDS011;47551;52.506;4.678;2022-09-03T02:34:24;6.57;;;4.23;;
61642;SDS011;47551;52.506;4.678;2022-09-03T02:34:44;7.20;;;4.40;;
61642;SDS011;47551;52.506;4.678;2022-09-03T02:35:05;6.10;;;4.33;;
61642;SDS011;47551;52.506;4.678;2022-09-03T02:35:25;5.50;;;4.57;;
61642;SDS011;47551;52.506;4.678;2022-09-03T02:35:46;6.50;;;4.37;;
61642;SDS011;47551;52.506;4.678;2022-09-03T02:36:07;6.17;;;4.20;;
61642;SDS011;47551;52.506;4.678;2022-09-03T02:36:29;5.53;;;4.45;;
61642;SDS011;47551;52.506;4.678;2022-09-03T02:36:50;5.70;;;4.35;;
61642;SDS011;47551;52.506;4.678;2022-09-03T02:37:15;5.38;;;4.13;;
61642;SDS011;47551;52.506;4.678;2022-09-03T02:37:35;7.10;;;4.10;;
61642;SDS011;47551;52.506;4.678;2022-09-03T02:37:55;5.77;;;4.23;;
61642;SDS011;47551;52.506;4.678;2022-09-03T02:38:17;5.80;;;4.27;;
61642;SDS011;47551;52.506;4.678;2022-09-03T02:38:39;5.80;;;4.10;;
61642;SDS011;47551;52.506;4.678;2022-09-03T02:39:00;5.88;;;4.10;;
61642;SDS011;47551;52.506;4.678;2022-09-03T02:39:20;5.75;;;4.05;;
61642;SDS011;47551;52.506;4.678;2022-09-03T02:39:40;5.00;;;4.10;;
61642;SDS011;47551;52.506;4.678;2022-09-03T02:40:01;6.13;;;4.27;;
61642;SDS011;47551;52.506;4.678;2022-09-03T02:40:27;6.32;;;4.20;;
61642;SDS011;47551;52.506;4.678;2022-09-03T02:40:47;6.63;;;4.10;;
61642;SDS011;47551;52.506;4.678;2022-09-03T02:41:07;5.40;;;3.90;;
61642;SDS011;47551;52.506;4.678;2022-09-03T02:41:28;5.25;;;4.07;;
61642;SDS011;47551;52.506;4.678;2022-09-03T02:41:54;5.07;;;3.90;;
61642;SDS011;47551;52.506;4.678;2022-09-03T02:42:15;5.50;;;4.10;;
61642;SDS011;47551;52.506;4.678;2022-09-03T02:42:35;5.13;;;4.20;;
61642;SDS011;47551;52.506;4.678;2022-09-03T02:42:55;5.83;;;4.00;;
61642;SDS011;47551;52.506;4.678;2022-09-03T02:43:19;6.20;;;4.38;;
61642;SDS011;47551;52.506;4.678;2022-09-03T02:43:51;5.60;;;4.10;;
61642;SDS011;47551;52.506;4.678;2022-09-03T02:44:15;5.63;;;3.88;;
61642;SDS011;47551;52.506;4.678;2022-09-03T02:44:38;5.55;;;4.25;;
61642;SDS011;47551;52.506;4.678;2022-09-03T02:45:03;6.88;;;4.30;;
61642;SDS011;47551;52.506;4.678;2022-09-03T02:45:27;5.80;;;3.92;;
61642;SDS011;47551;52.506;4.678;2022-09-03T02:45:49;5.28;;;4.00;;
61642;SDS011;47551;52.506;4.678;2022-09-03T02:46:12;5.28;;;4.00;;
61642;SDS011;47551;52.506;4.678;2022-09-03T02:46:42;4.72;;;4.05;;
61642;SDS011;47551;52.506;4.678;2022-09-03T02:47:04;5.85;;;3.88;;
61642;SDS011;47551;52.506;4.678;2022-09-03T02:47:27;6.75;;;3.88;;
61642;SDS011;47551;52.506;4.678;2022-09-03T02:47:51;6.25;;;4.05;;
61642;SDS011;47551;52.506;4.678;2022-09-03T02:48:12;5.85;;;4.05;;
61642;SDS011;47551;52.506;4.678;2022-09-03T02:48:34;5.10;;;3.80;;
61642;SDS011;47551;52.506;4.678;2022-09-03T02:48:54;5.38;;;4.05;;
61642;SDS011;47551;52.506;4.678;2022-09-03T02:49:15;6.33;;;4.30;;
61642;SDS011;47551;52.506;4.678;2022-09-03T02:49:35;6.10;;;4.07;;
61642;SDS011;47551;52.506;4.678;2022-09-03T02:49:55;6.47;;;4.00;;
61642;SDS011;47551;52.506;4.678;2022-09-03T02:50:15;6.77;;;4.10;;
61642;SDS011;47551;52.506;4.678;2022-09-03T02:50:39;5.47;;;4.10;;
61642;SDS011;47551;52.506;4.678;2022-09-03T02:50:59;5.15;;;4.10;;
61642;SDS011;47551;52.506;4.678;2022-09-03T02:51:20;5.80;;;4.10;;
61642;SDS011;47551;52.506;4.678;2022-09-03T02:51:41;5.53;;;4.10;;
61642;SDS011;47551;52.506;4.678;2022-09-03T02:52:02;5.40;;;3.88;;
61642;SDS011;47551;52.506;4.678;2022-09-03T02:52:28;5.18;;;3.67;;
61642;SDS011;47551;52.506;4.678;2022-09-03T02:52:48;5.97;;;3.87;;
61642;SDS011;47551;52.506;4.678;2022-09-03T02:53:09;6.00;;;4.00;;
61642;SDS011;47551;52.506;4.678;2022-09-03T02:53:29;6.73;;;4.10;;
61642;SDS011;47551;52.506;4.678;2022-09-03T02:53:49;6.00;;;3.87;;
61642;SDS011;47551;52.506;4.678;2022-09-03T02:54:10;6.30;;;3.90;;
61642;SDS011;47551;52.506;4.678;2022-09-03T02:54:31;5.00;;;4.05;;
61642;SDS011;47551;52.506;4.678;2022-09-03T02:54:54;5.45;;;4.00;;
61642;SDS011;47551;52.506;4.678;2022-09-03T02:55:14;5.70;;;4.00;;
61642;SDS011;47551;52.506;4.678;2022-09-03T02:55:35;5.67;;;4.10;;
61642;SDS011;47551;52.506;4.678;2022-09-03T02:55:58;5.77;;;4.30;;
61642;SDS011;47551;52.506;4.678;2022-09-03T02:56:19;5.90;;;4.22;;
61642;SDS011;47551;52.506;4.678;2022-09-03T02:56:39;6.00;;;3.90;;
61642;SDS011;47551;52.506;4.678;2022-09-03T02:56:59;6.07;;;3.92;;
61642;SDS011;47551;52.506;4.678;2022-09-03T02:57:19;5.77;;;4.07;;
61642;SDS011;47551;52.506;4.678;2022-09-03T02:57:40;6.13;;;4.20;;
61642;SDS011;47551;52.506;4.678;2022-09-03T02:58:00;5.43;;;4.00;;
61642;SDS011;47551;52.506;4.678;2022-09-03T02:58:20;4.82;;;3.75;;
61642;SDS011;47551;52.506;4.678;2022-09-03T02:58:40;5.30;;;4.00;;
61642;SDS011;47551;52.506;4.678;2022-09-03T02:59:01;6.10;;;4.47;;
61642;SDS011;47551;52.506;4.678;2022-09-03T02:59:21;6.32;;;4.05;;
61642;SDS011;47551;52.506;4.678;2022-09-03T02:59:42;7.37;;;3.90;;
61642;SDS011;47551;52.506;4.678;2022-09-03T03:00:04;6.43;;;4.03;;
61642;SDS011;47551;52.506;4.678;2022-09-03T03:00:25;6.40;;;4.20;;
61642;SDS011;47551;52.506;4.678;2022-09-03T03:00:45;6.00;;;4.10;;
61642;SDS011;47551;52.506;4.678;2022-09-03T03:01:08;5.28;;;4.00;;
61642;SDS011;47551;52.506;4.678;2022-09-03T03:01:28;5.28;;;3.85;;
61642;SDS011;47551;52.506;4.678;2022-09-03T03:01:48;4.77;;;3.90;;
61642;SDS011;47551;52.506;4.678;2022-09-03T03:02:09;6.40;;;4.00;;
61642;SDS011;47551;52.506;4.678;2022-09-03T03:02:29;6.57;;;3.97;;
61642;SDS011;47551;52.506;4.678;2022-09-03T03:02:50;5.55;;;3.85;;
61642;SDS011;47551;52.506;4.678;2022-09-03T03:03:11;5.53;;;4.00;;
61642;SDS011;47551;52.506;4.678;2022-09-03T03:03:31;5.47;;;4.07;;
61642;SDS011;47551;52.506;4.678;2022-09-03T03:03:52;5.10;;;4.10;;
61642;SDS011;47551;52.506;4.678;2022-09-03T03:04:12;5.27;;;3.83;;
61642;SDS011;47551;52.506;4.678;2022-09-03T03:04:32;5.60;;;4.03;;
61642;SDS011;47551;52.506;4.678;2022-09-03T03:04:52;6.50;;;4.17;;
61642;SDS011;47551;52.506;4.678;2022-09-03T03:05:16;5.55;;;4.00;;
61642;SDS011;47551;52.506;4.678;2022-09-03T03:05:42;6.03;;;4.28;;
61642;SDS011;47551;52.506;4.678;2022-09-03T03:06:03;6.00;;;4.25;;
61642;SDS011;47551;52.506;4.678;2022-09-03T03:06:24;6.80;;;4.00;;
61642;SDS011;47551;52.506;4.678;2022-09-03T03:06:44;6.40;;;4.07;;
61642;SDS011;47551;52.506;4.678;2022-09-03T03:07:05;6.07;;;4.40;;
61642;SDS011;47551;52.506;4.678;2022-09-03T03:07:26;5.22;;;4.28;;
61642;SDS011;47551;52.506;4.678;2022-09-03T03:07:47;4.90;;;4.20;;
61642;SDS011;47551;52.506;4.678;2022-09-03T03:08:07;6.20;;;4.37;;
61642;SDS011;47551;52.506;4.678;2022-09-03T03:08:28;6.00;;;4.10;;
61642;SDS011;47551;52.506;4.678;2022-09-03T03:08:49;5.40;;;4.00;;
61642;SDS011;47551;52.506;4.678;2022-09-03T03:09:09;5.70;;;4.22;;
61642;SDS011;47551;52.506;4.678;2022-09-03T03:09:32;6.47;;;4.10;;
61642;SDS011;47551;52.506;4.678;2022-09-03T03:09:52;6.30;;;4.10;;
61642;SDS011;47551;52.506;4.678;2022-09-03T03:10:13;6.33;;;4.30;;
61642;SDS011;47551;52.506;4.678;2022-09-03T03:10:34;6.38;;;4.03;;
61642;SDS011;47551;52.506;4.678;2022-09-03T03:11:06;6.22;;;4.10;;
61642;SDS011;47551;52.506;4.678;2022-09-03T03:11:26;5.70;;;4.10;;
61642;SDS011;47551;52.506;4.678;2022-09-03T03:11:47;6.47;;;4.20;;
61642;SDS011;47551;52.506;4.678;2022-09-03T03:12:09;7.63;;;3.90;;
61642;SDS011;47551;52.506;4.678;2022-09-03T03:12:29;8.73;;;4.00;;
61642;SDS011;47551;52.506;4.678;2022-09-03T03:12:53;8.60;;;4.13;;
61642;SDS011;47551;52.506;4.678;2022-09-03T03:13:13;6.90;;;4.00;;
61642;SDS011;47551;52.506;4.678;2022-09-03T03:13:34;5.57;;;4.13;;
61642;SDS011;47551;52.506;4.678;2022-09-03T03:13:54;6.33;;;4.50;;
61642;SDS011;47551;52.506;4.678;2022-09-03T03:14:15;6.43;;;4.40;;